Latest Weather Observations for Camden

IDN60801

Issued at 10:05 pm EST Saturday 30 August 2014 (issued every 30 minutes, with the page automatically refreshed every 10 minutes)

About weather observations | Map of weather stations | Latest weather observations for NSW | Other Formats
Station Details ID: 068192 Name: CAMDEN AIRPORT AWS Lat: -34.04 Lon: 150.69 Height: 73.9 m
Data from the previous 72 hours. | See also: Recent months at Camden
Date/Time
EST
Temp
°C
App
Temp
°C
Dew
Point
Rel
Hum
%
Delta-T
°C
Wind Press
QNH
hPa
Press
MSL
hPa
Rain
since 9 am
mm
Dir
 
Spd
km/h
Gust
km/h
Spd
kts
Gust
kts
30/10:00pm 12.5 10.3 8.0 74 2.2 SW 9 13 5 7 1022.5 1022.6 0.0
30/09:30pm 13.3 10.9 8.6 73 2.4 SW 11 13 6 7 1022.7 - 0.0
30/09:00pm 13.5 11.1 8.6 72 2.5 SSW 11 20 6 11 1022.7 1022.8 0.0
30/08:30pm 13.7 10.9 8.5 71 2.6 SSW 13 19 7 10 1022.9 - 0.0
30/08:00pm 14.3 11.6 8.9 70 2.7 SSW 13 17 7 9 1022.8 1022.9 0.0
30/07:30pm 14.4 11.7 8.8 69 2.8 SSW 13 22 7 12 1022.7 - 0.0
30/07:00pm 14.5 12.2 8.9 69 2.8 S 11 19 6 10 1022.6 1022.7 0.0
30/06:30pm 14.9 12.2 9.1 68 3.0 S 13 17 7 9 1022.3 - 0.0
30/06:00pm 14.8 12.2 9.2 69 2.9 S 13 17 7 9 1022.2 1022.3 0.0
30/05:30pm 15.5 12.9 9.2 66 3.3 S 13 17 7 9 1022.1 - 0.0
30/05:00pm 16.1 13.9 9.5 65 3.4 S 11 15 6 8 1022.0 1022.1 0.0
30/04:30pm 16.4 13.9 9.8 65 3.5 S 13 17 7 9 1022.0 - 0.0
30/04:00pm 16.5 13.5 9.2 62 3.8 S 15 20 8 11 1022.0 1022.1 0.0
30/03:30pm 16.7 14.0 8.9 60 4.0 S 13 20 7 11 1022.0 - 0.0
30/03:00pm 18.3 14.4 9.4 56 4.7 SSW 20 28 11 15 1022.0 1022.1 0.0
30/02:30pm 16.8 13.5 9.5 62 3.8 SW 17 20 9 11 1022.4 - 0.0
30/02:00pm 16.5 11.8 9.4 63 3.7 SSW 24 33 13 18 1022.8 1022.9 0.0
30/01:30pm 16.7 12.8 9.4 62 3.8 S 20 28 11 15 1022.9 - 0.0
30/01:00pm 16.4 12.4 9.1 62 3.8 S 20 30 11 16 1023.2 1023.3 0.0
30/12:30pm 16.0 12.1 9.4 65 3.4 SSW 20 28 11 15 1023.4 - 0.0
30/12:00pm 16.2 12.3 8.7 61 3.8 S 19 32 10 17 1023.6 1023.7 0.0
30/11:30am 16.4 12.4 8.9 61 3.9 S 20 32 11 17 1023.8 - 0.0
30/11:00am 16.8 13.3 8.8 59 4.1 S 17 28 9 15 1023.9 1024.0 0.0
30/10:30am 16.4 11.9 8.4 59 4.1 SSW 22 33 12 18 1024.1 - 0.0
30/10:00am 16.1 12.1 8.1 59 4.0 SSW 19 26 10 14 1024.2 1024.3 0.0
30/09:30am 14.9 10.2 7.7 62 3.6 SSW 22 39 12 21 1024.3 - 0.0
30/09:00am 14.4 10.2 7.5 63 3.4 SW 19 28 10 15 1024.4 1024.5 0.2
30/08:30am 13.9 10.0 7.0 63 3.4 SW 17 26 9 14 1024.6 - 0.2
30/08:00am 13.2 8.7 6.8 65 3.1 SW 20 33 11 18 1024.6 1024.7 0.2
30/07:30am 12.7 8.0 6.1 64 3.1 SW 20 28 11 15 1024.6 - 0.2
30/07:00am 12.4 7.9 6.2 66 2.9 SW 19 24 10 13 1024.5 1024.6 0.2
30/06:30am 12.4 7.9 6.2 66 2.9 SW 19 26 10 14 1024.2 - 0.2
30/06:00am 12.3 8.2 6.1 66 2.9 SW 17 28 9 15 1024.0 1024.1 0.2
30/05:30am 11.9 8.1 5.8 66 2.9 SW 15 22 8 12 1023.8 - 0.2
30/05:00am 11.7 7.4 5.3 65 2.9 SW 17 22 9 12 1023.5 1023.6 0.2
30/04:30am 11.7 7.4 5.1 64 3.0 SW 17 20 9 11 1023.6 - 0.2
30/04:00am 11.7 7.4 5.1 64 3.0 SW 17 20 9 11 1023.7 1023.8 0.2
30/03:30am 11.9 7.6 5.1 63 3.1 SW 17 22 9 12 1023.6 - 0.2
30/03:00am 11.9 7.9 4.9 62 3.2 SW 15 20 8 11 1023.7 1023.8 0.2
30/02:30am 11.8 7.8 5.0 63 3.1 SW 15 22 8 12 1024.0 - 0.2
30/02:00am 11.8 7.4 5.0 63 3.1 WSW 17 24 9 13 1024.1 1024.2 0.2
30/01:30am 12.2 7.9 5.1 62 3.3 SW 17 24 9 13 1024.3 - 0.2
30/01:00am 11.9 7.1 4.9 62 3.2 SW 19 26 10 14 1024.4 1024.5 0.2
30/12:30am 11.5 7.4 4.3 61 3.3 SW 15 24 8 13 1024.5 - 0.2
30/12:00am 11.6 7.2 4.8 63 3.1 SW 17 24 9 13 1024.8 1024.9 0.2
 
Date/Time
EST
Temp
°C
App
Temp
°C
Dew
Point
Rel
Hum
%
Delta-T
°C
Wind Press
QNH
hPa
Press
MSL
hPa
Rain
since 9 am
mm
Dir
 
Spd
km/h
Gust
km/h
Spd
kts
Gust
kts
29/11:30pm 10.5 7.7 5.1 69 2.5 SW 9 13 5 7 1025.0 - 0.2
29/11:00pm 11.2 8.0 5.3 67 2.7 S 11 13 6 7 1025.3 1025.4 0.2
29/10:30pm 11.1 8.0 5.6 69 2.5 SW 11 15 6 8 1025.2 - 0.2
29/10:00pm 11.5 8.2 6.2 70 2.5 SW 13 17 7 9 1025.4 1025.5 0.2
29/09:30pm 12.2 8.5 6.5 68 2.7 SW 15 19 8 10 1025.5 - 0.2
29/09:00pm 11.8 8.6 6.7 71 2.4 SW 13 19 7 10 1025.5 1025.6 0.2
29/08:30pm 11.7 8.7 6.2 69 2.6 SW 11 13 6 7 1025.6 - 0.2
29/08:00pm 12.3 9.4 6.6 68 2.7 SSW 11 13 6 7 1025.6 1025.7 0.2
29/07:30pm 12.6 9.7 6.6 67 2.9 S 11 13 6 7 1025.5 - 0.2
29/07:00pm 13.6 10.9 7.2 65 3.1 S 11 19 6 10 1025.6 1025.7 0.2
29/06:30pm 13.6 9.7 6.9 64 3.3 S 17 28 9 15 1025.2 - 0.2
29/06:00pm 14.0 10.2 7.5 65 3.2 S 17 30 9 16 1025.0 1025.1 0.2
29/05:30pm 14.0 10.3 8.0 67 3.0 SSE 17 24 9 13 1024.6 - 0.2
29/05:00pm 15.9 10.9 6.3 53 4.7 S 22 33 12 18 1024.3 1024.4 0.2
29/04:30pm 16.7 12.7 6.5 51 5.0 S 17 26 9 14 1024.1 - 0.2
29/04:00pm 16.2 12.8 7.7 57 4.3 S 15 24 8 13 1024.2 1024.3 0.2
29/03:30pm 15.9 11.1 7.4 57 4.2 S 22 33 12 18 1024.1 - 0.2
29/03:00pm 15.5 10.9 8.3 62 3.6 SSE 22 30 12 16 1024.3 1024.4 0.2
29/02:30pm 16.7 13.0 8.1 57 4.4 S 17 28 9 15 1024.3 - 0.2
29/02:00pm 15.3 12.5 9.9 70 2.8 SSW 15 24 8 13 1024.6 1024.7 0.2
29/01:30pm 13.7 8.6 9.2 74 2.3 S 26 33 14 18 1025.2 - 0.0
29/01:25pm 13.3 7.9 9.4 77 2.0 S 28 46 15 25 1025.3 - 0.0
29/01:19pm 13.3 6.3 8.6 73 2.4 S 35 46 19 25 1025.3 - 0.0
29/01:00pm 16.4 12.8 8.4 59 4.1 SSE 17 28 9 15 1025.1 1025.2 0.0
29/12:30pm 16.0 11.2 7.5 57 4.3 S 22 32 12 17 1025.4 - 0.0
29/12:00pm 16.6 12.1 7.0 53 4.7 SSW 20 28 11 15 1025.7 1025.8 0.0
29/11:30am 17.0 12.6 6.5 50 5.2 SSW 19 28 10 15 1025.8 - 0.0
29/11:00am 17.0 12.5 6.8 51 5.0 SW 20 26 11 14 1026.2 1026.3 0.0
29/10:30am 15.9 11.8 6.3 53 4.7 S 17 26 9 14 1026.5 - 0.0
29/10:00am 15.4 10.8 6.4 55 4.4 SSW 20 28 11 15 1026.8 1026.9 0.0
29/09:30am 15.5 11.7 7.5 59 4.0 SSW 17 26 9 14 1027.1 - 0.0
29/09:00am 14.5 10.8 7.8 64 3.3 SSW 17 26 9 14 1027.3 1027.4 13.4
29/08:30am 13.5 11.6 9.2 75 2.2 S 9 13 5 7 1027.4 - 13.2
29/08:00am 12.3 10.8 9.1 81 1.6 SW 7 19 4 10 1027.3 1027.4 13.0
29/07:30am 9.2 8.6 7.6 90 0.8 CALM 0 0 0 0 1027.2 - 12.8
29/07:00am 7.5 6.7 6.4 93 0.5 CALM 0 0 0 0 1027.0 1027.1 12.8
29/06:30am 6.9 4.2 5.8 93 0.5 SE 9 13 5 7 1026.9 - 12.6
29/06:00am 7.4 5.1 5.7 89 0.8 SSW 7 11 4 6 1026.7 1026.8 12.4
29/05:30am 7.3 4.6 5.8 90 0.7 S 9 9 5 5 1026.4 - 12.2
29/05:00am 8.1 5.5 6.2 88 0.9 SSW 9 11 5 6 1026.2 1026.3 12.0
29/04:30am 6.6 4.1 4.9 89 0.7 WSW 7 9 4 5 1026.1 - 11.8
29/04:00am 7.9 7.0 6.0 88 0.9 CALM 0 6 0 3 1026.4 1026.5 11.6
29/03:30am 8.5 6.6 6.5 87 0.9 S 6 7 3 4 1026.5 - 11.4
29/03:00am 8.7 6.1 6.3 85 1.1 SSW 9 13 5 7 1026.6 1026.7 11.2
29/02:30am 8.5 6.3 6.3 86 1.0 S 7 13 4 7 1026.7 - 11.0
29/02:00am 7.6 6.5 7.0 96 0.3 WSW 2 11 1 6 1026.8 1026.9 10.8
29/01:38am 6.9 6.0 6.2 95 0.3 CALM 0 0 0 0 1027.0 - 10.6
29/01:30am 7.0 6.1 6.1 94 0.4 CALM 0 0 0 0 1027.1 - 10.4
29/01:20am 7.0 6.0 5.8 92 0.5 CALM 0 0 0 0 1027.3 - 10.4
29/01:00am 7.8 7.0 6.4 91 0.6 CALM 0 6 0 3 1027.5 1027.6 10.2
29/12:30am 8.0 6.0 6.1 88 0.9 S 6 7 3 4 1027.7 - 10.0
29/12:00am 8.6 8.0 7.4 92 0.6 CALM 0 0 0 0 1028.0 1028.1 9.8
 
Date/Time
EST
Temp
°C
App
Temp
°C
Dew
Point
Rel
Hum
%
Delta-T
°C
Wind Press
QNH
hPa
Press
MSL
hPa
Rain
since 9 am
mm
Dir
 
Spd
km/h
Gust
km/h
Spd
kts
Gust
kts
28/11:30pm 8.5 7.8 7.0 90 0.7 CALM 0 0 0 0 1028.1 - 9.6
28/11:00pm 8.5 7.4 7.0 90 0.7 WSW 2 6 1 3 1028.1 1028.2 9.2
28/10:30pm 9.2 7.7 7.0 86 1.0 S 4 6 2 3 1028.1 - 9.0
28/10:00pm 9.2 6.8 6.8 85 1.1 S 9 9 5 5 1028.3 1028.4 8.8
28/09:30pm 9.6 7.7 6.7 82 1.4 SSW 6 7 3 4 1028.4 - 8.4
28/09:00pm 10.5 8.5 7.0 79 1.7 SSW 7 9 4 5 1028.5 1028.6 8.2
28/08:30pm 10.5 8.1 6.8 78 1.8 SSW 9 13 5 7 1028.3 - 7.8
28/08:00pm 11.2 8.8 7.1 76 1.9 SSW 9 11 5 6 1028.2 1028.3 7.6
28/07:30pm 11.1 8.3 7.0 76 2.0 SW 11 13 6 7 1028.1 - 7.2
28/07:00pm 12.1 9.8 7.4 73 2.3 SSW 9 15 5 8 1028.0 1028.1 6.8
28/06:30pm 12.2 9.4 7.1 71 2.5 SSW 11 13 6 7 1027.7 - 6.4
28/06:00pm 13.3 10.9 7.1 66 3.0 S 9 13 5 7 1027.6 1027.7 6.2
28/05:30pm 14.0 10.8 6.8 62 3.5 S 13 20 7 11 1027.4 - 5.8
28/05:00pm 15.1 11.3 7.4 60 3.8 S 17 24 9 13 1027.1 1027.2 5.4
28/04:30pm 15.4 11.8 8.2 62 3.6 SSE 17 24 9 13 1026.8 - 5.0
28/04:00pm 15.8 11.7 7.8 59 4.0 SE 19 26 10 14 1026.4 1026.5 4.4
28/03:30pm 15.6 11.6 9.1 65 3.3 S 20 30 11 16 1026.4 - 4.0
28/03:00pm 15.5 14.5 10.9 74 2.4 SSE 7 13 4 7 1026.2 1026.3 3.6
28/02:30pm 15.4 13.9 10.4 72 2.6 S 9 15 5 8 1026.2 - 3.0
28/02:00pm 14.5 11.8 10.3 76 2.2 S 15 22 8 12 1026.4 1026.5 2.4
28/01:30pm 13.9 10.7 10.1 78 2.0 S 17 20 9 11 1026.4 - 2.0
28/01:00pm 17.9 13.5 6.4 47 5.7 SSE 19 30 10 16 1026.0 1026.1 1.6
28/12:30pm 19.0 14.2 7.4 47 5.9 SSE 22 35 12 19 1026.1 - 1.4
28/12:00pm 17.0 12.5 6.8 51 5.0 SSE 20 30 11 16 1026.5 1026.6 1.2
28/11:30am 18.2 13.9 7.9 51 5.3 SSE 20 30 11 16 1027.0 - 1.2
28/11:00am 18.5 14.3 7.6 49 5.5 SSE 19 26 10 14 1027.2 1027.3 0.8
28/10:30am 18.0 13.5 8.6 54 4.9 SSE 22 32 12 17 1027.4 - 0.8
28/10:00am 17.3 13.3 9.2 59 4.2 S 20 32 11 17 1027.6 1027.7 0.4
28/09:30am 16.5 13.0 10.1 66 3.4 S 19 28 10 15 1027.6 - 0.4
28/09:00am 15.5 11.8 9.6 68 3.0 S 19 28 10 15 1027.5 1027.6 11.0
28/08:30am 13.7 10.3 9.0 73 2.4 S 17 24 9 13 1027.6 - 11.0
28/08:00am 13.3 10.2 8.8 74 2.3 S 15 20 8 11 1027.4 1027.5 10.8
28/07:30am 13.0 9.5 8.7 75 2.2 SSW 17 24 9 13 1027.0 - 10.6
28/07:00am 11.8 9.3 8.3 79 1.7 SSW 11 15 6 8 1026.9 1027.0 10.4
28/06:30am 11.6 8.7 8.1 79 1.7 SW 13 17 7 9 1026.6 - 10.2
28/06:00am 11.9 9.4 8.2 78 1.8 SW 11 15 6 8 1026.2 1026.3 10.0
28/05:30am 11.9 9.8 8.4 79 1.7 SW 9 13 5 7 1026.0 - 9.8
28/05:00am 11.7 10.0 8.4 80 1.6 SSW 7 9 4 5 1025.8 1025.9 9.6
28/04:30am 11.4 8.9 8.1 80 1.6 SSW 11 17 6 9 1025.6 - 9.4
28/04:00am 11.8 8.9 8.1 78 1.8 SSW 13 17 7 9 1025.5 1025.6 9.2
28/03:30am 11.6 8.7 8.1 79 1.7 SSW 13 17 7 9 1025.7 - 9.0
28/03:00am 11.7 9.2 8.0 78 1.8 SSW 11 17 6 9 1025.6 1025.7 8.8
28/02:30am 11.9 9.4 8.4 79 1.7 SSW 11 17 6 9 1025.8 - 8.6
28/02:00am 11.4 9.2 7.9 79 1.7 SSW 9 13 5 7 1025.9 1026.0 8.4
28/01:30am 11.5 8.9 7.8 78 1.8 SSW 11 17 6 9 1026.1 - 8.2
28/01:00am 11.0 8.3 7.3 78 1.8 SSW 11 15 6 8 1026.3 1026.4 8.0
28/12:30am 11.1 8.4 7.2 77 1.9 SSW 11 15 6 8 1026.4 - 7.8
28/12:00am 11.1 7.9 7.0 76 1.9 SW 13 17 7 9 1026.4 1026.5 7.6
 
Date/Time
EST
Temp
°C
App
Temp
°C
Dew
Point
Rel
Hum
%
Delta-T
°C
Wind Press
QNH
hPa
Press
MSL
hPa
Rain
since 9 am
mm
Dir
 
Spd
km/h
Gust
km/h
Spd
kts
Gust
kts
27/11:30pm 11.0 7.8 6.9 76 2.0 SW 13 19 7 10 1026.6 - 7.4
27/11:00pm 11.2 8.0 6.9 75 2.0 SSW 13 15 7 8 1026.9 1027.0 7.2
27/10:30pm 11.0 8.1 6.7 75 2.0 SW 11 15 6 8 1026.8 - 7.0

Other Formats:

Comma delimited format used in spreadsheet applications
http://www.bom.gov.au/fwo/IDN60801/IDN60801.94755.axf

JavaScript Object Notation format (JSON) in row-major order
http://www.bom.gov.au/fwo/IDN60801/IDN60801.94755.json